createdAt,value
2022-08-08T00:00:52.464Z,22.81
2022-08-08T00:02:58.194Z,22.82
2022-08-08T00:04:59.557Z,22.81
2022-08-08T00:07:00.904Z,22.82
2022-08-08T00:09:16.099Z,22.82
2022-08-08T00:11:18.003Z,22.82
2022-08-08T00:13:20.913Z,22.81
2022-08-08T00:15:57.130Z,22.80
2022-08-08T00:18:03.215Z,22.80
2022-08-08T00:20:05.411Z,22.79
2022-08-08T00:22:10.266Z,22.82
2022-08-08T00:24:11.997Z,22.84
2022-08-08T00:26:14.042Z,22.86
2022-08-08T00:28:35.817Z,22.86
2022-08-08T00:30:45.160Z,22.84
2022-08-08T00:32:59.389Z,22.84
2022-08-08T00:35:18.402Z,22.87
2022-08-08T00:37:48.223Z,22.90
2022-08-08T00:41:10.510Z,22.90
2022-08-08T00:42:12.669Z,22.88
2022-08-08T00:44:20.175Z,22.87
2022-08-08T00:46:21.880Z,22.88
2022-08-08T00:48:29.429Z,22.86
2022-08-08T00:50:32.043Z,22.84
2022-08-08T00:52:34.671Z,22.83
2022-08-08T00:54:41.714Z,22.86
2022-08-08T00:56:43.014Z,22.88
2022-08-08T00:58:54.577Z,22.95
2022-08-08T01:00:56.489Z,22.98
2022-08-08T01:04:01.527Z,22.97
2022-08-08T01:05:28.911Z,22.97
2022-08-08T01:07:54.716Z,22.95
2022-08-08T01:09:58.839Z,22.95
2022-08-08T01:12:00.205Z,22.95
2022-08-08T01:14:04.382Z,22.99
2022-08-08T01:16:05.687Z,23.02
2022-08-08T01:18:16.368Z,22.99
2022-08-08T01:20:26.979Z,22.96
2022-08-08T01:22:35.009Z,22.94
2022-08-08T01:24:37.522Z,22.93
2022-08-08T01:26:39.925Z,22.94
2022-08-08T01:28:51.438Z,22.93
2022-08-08T01:30:53.482Z,22.92
2022-08-08T01:32:55.151Z,22.93
2022-08-08T01:34:56.492Z,22.93
2022-08-08T01:36:58.422Z,22.91
2022-08-08T01:39:03.259Z,22.90
2022-08-08T01:41:04.603Z,22.89
2022-08-08T01:43:05.966Z,22.88
2022-08-08T01:45:09.982Z,22.88
2022-08-08T01:48:14.176Z,22.89
2022-08-08T01:49:37.185Z,22.88
2022-08-08T01:52:43.434Z,22.88
2022-08-08T01:54:16.384Z,22.88
2022-08-08T01:56:31.101Z,22.87
2022-08-08T01:58:39.542Z,22.87
2022-08-08T02:00:48.398Z,22.87
2022-08-08T02:02:50.108Z,22.89
2022-08-08T02:04:52.282Z,22.89
2022-08-08T02:06:53.699Z,22.96
2022-08-08T02:08:56.063Z,22.97
2022-08-08T02:10:59.204Z,22.95
2022-08-08T02:13:00.499Z,22.94
2022-08-08T02:15:04.166Z,22.93
2022-08-08T02:17:10.745Z,22.92
2022-08-08T02:19:26.659Z,22.98
2022-08-08T02:22:01.476Z,22.96
2022-08-08T02:24:03.948Z,22.94
2022-08-08T02:26:08.213Z,22.92
2022-08-08T02:28:11.663Z,22.90
2022-08-08T02:30:20.920Z,22.90
2022-08-08T02:32:26.157Z,22.89
2022-08-08T02:34:33.421Z,22.88
2022-08-08T02:36:36.610Z,22.88
2022-08-08T02:38:37.975Z,22.89
2022-08-08T02:40:42.276Z,22.95
2022-08-08T02:44:35.858Z,22.92
2022-08-08T02:45:18.622Z,22.64
2022-08-08T02:47:22.538Z,22.53
2022-08-08T02:49:27.624Z,22.45
2022-08-08T02:51:55.678Z,22.41
2022-08-08T02:54:00.979Z,22.12
2022-08-08T02:56:03.671Z,22.35
2022-08-08T02:58:05.050Z,22.31
2022-08-08T03:00:15.969Z,22.28
2022-08-08T03:02:30.877Z,21.38
2022-08-08T03:05:02.557Z,21.16
2022-08-08T03:06:53.728Z,21.66
2022-08-08T03:08:55.262Z,21.91
2022-08-08T03:10:56.572Z,22.05
2022-08-08T03:13:01.462Z,22.13
2022-08-08T03:16:00.784Z,22.15
2022-08-08T03:17:34.090Z,22.17
2022-08-08T03:19:50.953Z,22.19
2022-08-08T03:21:58.560Z,22.19
2022-08-08T03:24:02.118Z,22.19
2022-08-08T03:26:03.586Z,22.19
2022-08-08T03:28:04.885Z,22.20
2022-08-08T03:30:06.665Z,22.19
2022-08-08T03:32:29.222Z,22.19
2022-08-08T03:34:32.087Z,22.18
2022-08-08T03:36:33.418Z,22.18
2022-08-08T03:38:54.075Z,22.17
2022-08-08T03:40:56.762Z,22.17
2022-08-08T03:43:15.540Z,22.16
2022-08-08T03:46:05.358Z,22.15
2022-08-08T03:47:45.766Z,22.16
2022-08-08T03:50:00.715Z,22.14
2022-08-08T03:52:03.395Z,22.14
2022-08-08T03:54:05.250Z,22.13
2022-08-08T03:56:09.711Z,22.12
2022-08-08T03:58:36.418Z,22.12
2022-08-08T04:00:32.477Z,22.11
2022-08-08T04:02:47.649Z,22.11
2022-08-08T04:04:53.668Z,22.11
2022-08-08T04:06:54.996Z,22.10
2022-08-08T04:08:56.297Z,22.10
2022-08-08T04:11:00.052Z,22.10
2022-08-08T04:13:17.113Z,22.09
2022-08-08T04:15:22.355Z,22.08
2022-08-08T04:17:46.026Z,22.08
2022-08-08T04:19:45.119Z,22.08
2022-08-08T04:21:47.336Z,22.06
2022-08-08T04:24:05.593Z,22.07
2022-08-08T04:26:11.268Z,22.08
2022-08-08T04:28:36.271Z,22.08
2022-08-08T04:30:36.440Z,22.08
2022-08-08T04:32:41.428Z,22.07
2022-08-08T04:34:58.484Z,22.07
2022-08-08T04:37:00.972Z,22.05
2022-08-08T04:40:03.994Z,22.07
2022-08-08T04:41:27.015Z,22.06
2022-08-08T04:43:45.307Z,22.05
2022-08-08T04:45:48.288Z,22.04
2022-08-08T04:47:50.900Z,22.04
2022-08-08T04:50:00.346Z,22.03
2022-08-08T04:52:04.067Z,22.02
2022-08-08T04:54:39.072Z,22.02
2022-08-08T04:56:26.857Z,22.02
2022-08-08T04:58:28.244Z,22.01
2022-08-08T05:00:30.823Z,22.02
2022-08-08T05:02:32.316Z,22.01
2022-08-08T05:04:33.784Z,22.01
2022-08-08T05:06:36.485Z,22.00
2022-08-08T05:08:40.657Z,22.00
2022-08-08T05:10:42.679Z,22.00
2022-08-08T05:13:01.819Z,21.99
2022-08-08T05:15:04.473Z,21.99
2022-08-08T05:17:08.708Z,22.00
2022-08-08T05:20:09.733Z,21.99
2022-08-08T05:21:43.705Z,21.98
2022-08-08T05:24:04.230Z,21.98
2022-08-08T05:26:10.218Z,21.97
2022-08-08T05:28:15.633Z,21.98
2022-08-08T05:30:36.921Z,21.98
2022-08-08T05:32:39.789Z,21.98
2022-08-08T05:34:41.300Z,21.97
2022-08-08T05:36:42.669Z,21.97
2022-08-08T05:38:44.909Z,21.97
2022-08-08T05:40:46.220Z,21.97
2022-08-08T05:42:51.357Z,21.96
2022-08-08T05:44:52.988Z,21.96
2022-08-08T05:46:54.594Z,21.96
2022-08-08T05:49:10.353Z,21.95
2022-08-08T05:51:15.753Z,21.96
2022-08-08T05:53:54.464Z,21.96
2022-08-08T05:56:11.550Z,21.95
2022-08-08T05:58:06.010Z,21.95
2022-08-08T06:00:22.649Z,21.96
2022-08-08T06:02:44.080Z,21.96
2022-08-08T06:04:54.877Z,21.95
2022-08-08T06:07:00.075Z,21.95
2022-08-08T06:09:41.831Z,21.96
2022-08-08T06:11:28.210Z,21.95
2022-08-08T06:13:36.565Z,21.96
2022-08-08T06:15:51.359Z,21.96
2022-08-08T06:18:18.729Z,21.97
2022-08-08T06:20:16.500Z,21.98
2022-08-08T06:22:36.504Z,22.00
2022-08-08T06:24:37.871Z,22.02
2022-08-08T06:26:50.439Z,22.04
2022-08-08T06:28:54.239Z,22.05
2022-08-08T06:30:57.685Z,22.07
2022-08-08T06:33:01.282Z,21.92
2022-08-08T06:36:04.575Z,22.10
2022-08-08T06:37:25.951Z,22.10
2022-08-08T06:39:27.466Z,22.11
2022-08-08T06:41:34.531Z,22.12
2022-08-08T06:43:35.910Z,22.13
2022-08-08T06:45:38.893Z,22.13
2022-08-08T06:47:58.578Z,22.14
2022-08-08T06:50:04.145Z,22.16
2022-08-08T06:52:05.684Z,22.16
2022-08-08T06:54:07.026Z,22.17
2022-08-08T06:56:09.236Z,22.18
2022-08-08T06:58:10.573Z,22.19
2022-08-08T07:00:13.206Z,22.19
2022-08-08T07:02:27.378Z,21.52
2022-08-08T07:04:41.497Z,22.21
2022-08-08T07:06:50.633Z,22.20
2022-08-08T07:08:52.926Z,22.22
2022-08-08T07:10:54.231Z,22.23
2022-08-08T07:12:55.582Z,22.23
2022-08-08T07:14:57.976Z,22.23
2022-08-08T07:17:02.746Z,22.24
2022-08-08T07:19:10.143Z,22.24
2022-08-08T07:21:19.251Z,22.25
2022-08-08T07:23:23.553Z,22.26
2022-08-08T07:25:29.435Z,22.26
2022-08-08T07:27:47.213Z,22.27
2022-08-08T07:29:54.707Z,22.28
2022-08-08T07:32:03.232Z,22.28
2022-08-08T07:34:09.019Z,22.29
2022-08-08T07:36:10.689Z,22.30
2022-08-08T07:38:21.008Z,22.29
2022-08-08T07:40:29.428Z,22.29
2022-08-08T07:42:34.550Z,22.30
2022-08-08T07:44:40.496Z,22.31
2022-08-08T07:46:44.948Z,22.33
2022-08-08T07:48:46.800Z,22.37
2022-08-08T07:50:48.145Z,22.41
2022-08-08T07:52:49.540Z,22.44
2022-08-08T07:54:50.859Z,22.47
2022-08-08T07:56:52.690Z,22.50
2022-08-08T07:58:53.987Z,22.54
2022-08-08T08:00:56.655Z,22.55
2022-08-08T08:03:01.395Z,22.58
2022-08-08T08:05:03.565Z,22.60
2022-08-08T08:07:05.253Z,22.62
2022-08-08T08:09:07.311Z,22.63
2022-08-08T08:11:08.618Z,22.65
2022-08-08T08:13:25.603Z,22.66
2022-08-08T08:15:43.405Z,22.68
2022-08-08T08:17:55.780Z,22.70
2022-08-08T08:19:57.459Z,22.71
2022-08-08T08:22:00.844Z,22.71
2022-08-08T08:24:09.086Z,22.73
2022-08-08T08:26:15.027Z,22.75
2022-08-08T08:28:29.116Z,22.77
2022-08-08T08:30:31.537Z,22.78
2022-08-08T08:32:36.349Z,22.79
2022-08-08T08:34:43.363Z,22.80
2022-08-08T08:36:51.304Z,22.81
2022-08-08T08:38:56.086Z,22.81
2022-08-08T08:40:57.484Z,22.82
2022-08-08T08:42:59.065Z,22.83
2022-08-08T08:45:02.071Z,22.83
2022-08-08T08:47:18.078Z,22.83
2022-08-08T08:49:19.400Z,22.85
2022-08-08T08:51:20.844Z,22.84
2022-08-08T08:53:54.380Z,22.85
2022-08-08T08:55:43.612Z,22.86
2022-08-08T08:57:46.954Z,22.86
2022-08-08T09:00:00.033Z,22.88
2022-08-08T09:02:06.407Z,22.87
2022-08-08T09:04:10.144Z,22.87
2022-08-08T09:06:34.042Z,22.88
2022-08-08T09:08:35.833Z,22.89
2022-08-08T09:10:37.983Z,22.88
2022-08-08T09:12:39.467Z,22.90
2022-08-08T09:14:42.684Z,22.88
2022-08-08T09:16:44.547Z,22.89
2022-08-08T09:18:49.087Z,22.89
2022-08-08T09:21:56.667Z,22.89
2022-08-08T09:23:17.854Z,22.89
2022-08-08T09:25:36.056Z,22.89
2022-08-08T09:27:57.183Z,22.90
2022-08-08T09:29:59.651Z,22.91
2022-08-08T09:32:01.014Z,22.90
2022-08-08T09:34:30.221Z,22.90
2022-08-08T09:36:24.415Z,22.91
2022-08-08T09:38:28.628Z,22.91
2022-08-08T09:40:43.988Z,22.91
2022-08-08T09:42:52.105Z,22.91
2022-08-08T09:44:53.528Z,22.92
2022-08-08T09:46:57.453Z,22.93
2022-08-08T09:49:41.551Z,22.92
2022-08-08T09:51:27.618Z,22.92
2022-08-08T09:53:53.147Z,22.92
2022-08-08T09:56:05.108Z,22.92
2022-08-08T09:58:07.632Z,22.93
2022-08-08T10:00:50.185Z,22.93
2022-08-08T10:02:33.519Z,22.93
2022-08-08T10:04:41.439Z,22.93
2022-08-08T10:06:45.179Z,22.94
2022-08-08T10:08:46.782Z,22.95
2022-08-08T10:10:51.294Z,22.95
2022-08-08T10:12:57.322Z,22.95
2022-08-08T10:14:58.944Z,22.96
2022-08-08T10:17:02.515Z,22.96
2022-08-08T10:19:23.792Z,22.96
2022-08-08T10:21:33.103Z,22.97
2022-08-08T10:23:47.112Z,22.98
2022-08-08T10:25:56.177Z,22.98
2022-08-08T10:27:58.897Z,22.96
2022-08-08T10:30:01.384Z,22.96
2022-08-08T10:32:24.251Z,22.99
2022-08-08T10:34:27.389Z,22.99
2022-08-08T10:36:31.134Z,22.99
2022-08-08T10:38:34.737Z,23.00
2022-08-08T10:40:36.122Z,23.01
2022-08-08T10:42:37.724Z,23.02
2022-08-08T10:44:45.853Z,23.02
2022-08-08T10:46:50.566Z,23.02
2022-08-08T10:48:57.154Z,23.03
2022-08-08T10:51:00.440Z,23.03
2022-08-08T10:53:02.375Z,23.04
2022-08-08T10:55:06.708Z,23.06
2022-08-08T10:57:09.149Z,23.04
2022-08-08T10:59:14.170Z,23.04
2022-08-08T11:01:16.258Z,23.06
2022-08-08T11:03:18.825Z,23.06
2022-08-08T11:05:39.147Z,23.06
2022-08-08T11:08:37.005Z,23.08
2022-08-08T11:10:01.904Z,23.10
2022-08-08T11:12:12.826Z,23.12
2022-08-08T11:14:16.074Z,23.13
2022-08-08T11:16:32.639Z,23.13
2022-08-08T11:18:34.769Z,23.13
2022-08-08T11:20:36.078Z,23.17
2022-08-08T11:22:37.504Z,23.17
2022-08-08T11:24:39.286Z,23.17
2022-08-08T11:26:53.922Z,23.18
2022-08-08T11:28:58.399Z,23.20
2022-08-08T11:31:00.179Z,23.21
2022-08-08T11:33:05.219Z,23.21
2022-08-08T11:35:29.561Z,23.21
2022-08-08T11:38:34.350Z,22.47
2022-08-08T11:39:57.492Z,23.23
2022-08-08T11:41:59.223Z,22.37
2022-08-08T11:44:00.787Z,23.26
2022-08-08T11:46:14.211Z,23.22
2022-08-08T11:48:20.334Z,23.10
2022-08-08T11:50:23.184Z,23.18
2022-08-08T11:52:27.417Z,23.23
2022-08-08T11:54:33.891Z,23.26
2022-08-08T11:56:35.727Z,23.29
2022-08-08T11:58:43.693Z,23.32
2022-08-08T12:00:52.196Z,23.33
2022-08-08T12:02:55.068Z,23.33
2022-08-08T12:04:56.520Z,23.34
2022-08-08T12:06:59.336Z,23.37
2022-08-08T12:09:00.707Z,23.36
2022-08-08T12:11:02.163Z,23.36
2022-08-08T12:13:04.498Z,23.37
2022-08-08T12:15:06.319Z,23.38
2022-08-08T12:17:10.923Z,23.40
2022-08-08T12:19:12.345Z,23.41
2022-08-08T12:21:14.264Z,23.43
2022-08-08T12:23:30.470Z,23.43
2022-08-08T12:25:44.862Z,23.44
2022-08-08T12:27:59.218Z,23.46
2022-08-08T12:30:02.200Z,23.46
2022-08-08T12:32:03.727Z,23.46
2022-08-08T12:34:10.706Z,23.49
2022-08-08T12:36:12.512Z,23.51
2022-08-08T12:38:18.011Z,23.52
2022-08-08T12:40:24.022Z,23.46
2022-08-08T12:42:27.472Z,23.33
2022-08-08T12:44:36.627Z,23.32
2022-08-08T12:46:40.445Z,23.40
2022-08-08T12:48:50.568Z,23.46
2022-08-08T12:51:02.699Z,23.49
2022-08-08T12:53:04.186Z,22.66
2022-08-08T12:55:09.168Z,23.54
2022-08-08T12:57:17.099Z,23.56
2022-08-08T12:59:18.807Z,23.57
2022-08-08T13:01:35.039Z,23.56
2022-08-08T13:03:38.430Z,23.57
2022-08-08T13:06:04.057Z,23.57
2022-08-08T13:08:05.273Z,23.57
2022-08-08T13:10:10.680Z,23.57
2022-08-08T13:12:27.812Z,23.58
2022-08-08T13:14:33.644Z,23.60
2022-08-08T13:16:37.128Z,23.59
2022-08-08T13:18:48.875Z,23.60
2022-08-08T13:20:58.466Z,23.60
2022-08-08T13:23:35.221Z,23.59
2022-08-08T13:25:22.360Z,23.77
2022-08-08T13:27:29.974Z,24.17
2022-08-08T13:29:37.976Z,24.28
2022-08-08T13:31:42.299Z,24.25
2022-08-08T13:33:44.031Z,24.15
2022-08-08T13:35:50.118Z,24.04
2022-08-08T13:38:06.182Z,24.03
2022-08-08T13:40:09.128Z,24.03
2022-08-08T13:42:10.437Z,23.93
2022-08-08T13:44:12.519Z,23.83
2022-08-08T13:46:28.796Z,23.78
2022-08-08T13:48:30.352Z,23.81
2022-08-08T13:50:37.384Z,23.81
2022-08-08T13:52:41.589Z,23.85
2022-08-08T13:54:44.051Z,23.85
2022-08-08T13:56:59.732Z,23.86
2022-08-08T13:59:02.091Z,23.86
2022-08-08T14:01:03.386Z,23.83
2022-08-08T14:03:26.725Z,23.76
2022-08-08T14:05:27.487Z,23.76
2022-08-08T14:07:29.815Z,23.77
2022-08-08T14:10:03.399Z,23.74
2022-08-08T14:11:54.514Z,23.71
2022-08-08T14:13:59.480Z,23.73
2022-08-08T14:16:02.378Z,23.74
2022-08-08T14:18:36.304Z,23.73
2022-08-08T14:20:57.863Z,23.80
2022-08-08T14:22:47.659Z,23.80
2022-08-08T14:24:51.846Z,23.77
2022-08-08T14:26:53.206Z,23.77
2022-08-08T14:28:55.255Z,23.81
2022-08-08T14:30:56.610Z,23.78
2022-08-08T14:32:58.816Z,23.66
2022-08-08T14:35:00.166Z,23.59
2022-08-08T14:37:05.703Z,23.58
2022-08-08T14:39:11.550Z,23.65
2022-08-08T14:41:13.340Z,23.72
2022-08-08T14:43:31.277Z,23.62
2022-08-08T14:46:02.409Z,23.59
2022-08-08T14:48:03.392Z,23.66
2022-08-08T14:50:11.342Z,23.99
2022-08-08T14:52:17.659Z,24.22
2022-08-08T14:54:28.568Z,24.84
2022-08-08T14:56:30.905Z,25.22
2022-08-08T14:58:33.507Z,25.12
2022-08-08T15:00:35.294Z,25.08
2022-08-08T15:02:38.012Z,25.06
2022-08-08T15:05:11.475Z,24.71
2022-08-08T15:07:19.023Z,24.20
2022-08-08T15:09:24.484Z,24.34
2022-08-08T15:11:26.410Z,24.64
2022-08-08T15:13:35.194Z,24.52
2022-08-08T15:16:01.283Z,24.54
2022-08-08T15:18:03.838Z,24.52
2022-08-08T15:20:06.736Z,24.86
2022-08-08T15:22:10.759Z,24.76
2022-08-08T15:24:14.446Z,24.86
2022-08-08T15:26:17.556Z,24.82
2022-08-08T15:28:33.583Z,24.76
2022-08-08T15:30:36.187Z,24.74
2022-08-08T15:32:38.729Z,24.72
2022-08-08T15:34:40.190Z,24.94
2022-08-08T15:36:42.559Z,24.89
2022-08-08T15:38:49.730Z,25.20
2022-08-08T15:40:52.253Z,25.28
2022-08-08T15:42:54.082Z,25.22
2022-08-08T15:44:55.467Z,25.17
2022-08-08T15:46:57.766Z,25.43
2022-08-08T15:48:59.096Z,25.20
2022-08-08T15:51:06.352Z,25.02
2022-08-08T15:53:08.541Z,24.95
2022-08-08T15:55:12.159Z,24.86
2022-08-08T15:57:15.106Z,24.76
2022-08-08T15:59:16.490Z,24.75
2022-08-08T16:01:18.089Z,24.64
2022-08-08T16:03:19.558Z,24.67
2022-08-08T16:05:21.055Z,24.72
2022-08-08T16:07:22.674Z,24.43
2022-08-08T16:13:05.867Z,23.81
2022-08-08T16:13:20.819Z,24.00
2022-08-08T16:14:15.847Z,23.71
2022-08-08T16:16:18.804Z,23.87
2022-08-08T16:18:23.545Z,24.51
2022-08-08T16:20:24.895Z,24.76
2022-08-08T16:22:31.178Z,24.64
2022-08-08T16:24:32.598Z,24.97
2022-08-08T16:26:35.887Z,25.03
2022-08-08T16:28:37.554Z,25.20
2022-08-08T16:30:43.011Z,24.95
2022-08-08T16:32:48.392Z,24.78
2022-08-08T16:34:51.028Z,24.34
2022-08-08T16:36:52.738Z,23.94
2022-08-08T16:38:56.749Z,23.77
2022-08-08T16:40:58.119Z,24.11
2022-08-08T16:43:03.266Z,24.45
2022-08-08T16:45:11.386Z,24.61
2022-08-08T16:47:40.175Z,24.58
2022-08-08T16:49:43.555Z,24.62
2022-08-08T16:55:18.252Z,24.60
2022-08-08T16:55:18.391Z,24.54
2022-08-08T16:56:27.562Z,24.53
2022-08-08T16:58:34.258Z,24.58
2022-08-08T17:00:36.088Z,24.50
2022-08-08T17:02:44.185Z,23.55
2022-08-08T17:04:45.993Z,23.17
2022-08-08T17:06:47.319Z,23.05
2022-08-08T17:08:48.743Z,23.24
2022-08-08T17:10:58.196Z,23.76
2022-08-08T17:13:00.810Z,24.14
2022-08-08T17:15:20.330Z,24.14
2022-08-08T17:17:41.773Z,24.31
2022-08-08T17:19:45.767Z,24.45
2022-08-08T17:21:50.748Z,24.53
2022-08-08T17:24:00.750Z,24.52
2022-08-08T17:26:05.142Z,24.33
2022-08-08T17:28:06.687Z,24.41
2022-08-08T17:30:08.268Z,24.32
2022-08-08T17:32:10.240Z,23.97
2022-08-08T17:34:49.585Z,23.62
2022-08-08T17:36:32.831Z,23.46
2022-08-08T17:38:34.145Z,23.39
2022-08-08T17:40:35.887Z,23.33
2022-08-08T17:42:37.384Z,23.29
2022-08-08T17:44:39.793Z,23.23
2022-08-08T17:46:45.581Z,23.21
2022-08-08T17:48:47.885Z,23.20
2022-08-08T17:50:49.275Z,23.16
2022-08-08T17:52:50.708Z,23.14
2022-08-08T17:54:56.025Z,23.74
2022-08-08T17:56:57.975Z,23.72
2022-08-08T17:58:59.949Z,23.46
2022-08-08T18:01:02.424Z,22.42
2022-08-08T18:03:08.565Z,23.23
2022-08-08T18:05:14.683Z,23.19
2022-08-08T18:08:11.401Z,23.14
2022-08-08T18:09:45.699Z,23.12
2022-08-08T18:11:49.190Z,23.09
2022-08-08T18:13:52.516Z,23.06
2022-08-08T18:15:59.925Z,23.03
2022-08-08T18:18:27.856Z,23.01
2022-08-08T18:20:36.487Z,22.96
2022-08-08T18:22:50.829Z,22.94
2022-08-08T18:24:52.759Z,22.95
2022-08-08T18:26:56.817Z,22.90
2022-08-08T18:28:58.320Z,22.85
2022-08-08T18:31:02.648Z,22.82
2022-08-08T18:33:10.481Z,22.78
2022-08-08T18:35:21.449Z,22.76
2022-08-08T18:37:34.825Z,22.75
2022-08-08T18:39:36.831Z,22.69
2022-08-08T18:41:51.095Z,23.14
2022-08-08T18:43:59.696Z,23.61
2022-08-08T18:46:54.555Z,23.46
2022-08-08T18:48:22.329Z,23.42
2022-08-08T18:50:27.371Z,23.30
2022-08-08T18:52:29.838Z,23.27
2022-08-08T18:54:33.563Z,22.35
2022-08-08T18:56:35.420Z,23.29
2022-08-08T18:58:36.821Z,23.26
2022-08-08T19:00:38.249Z,23.23
2022-08-08T19:02:48.313Z,23.19
2022-08-08T19:04:56.457Z,23.25
2022-08-08T19:06:57.775Z,23.09
2022-08-08T19:08:59.139Z,23.20
2022-08-08T19:11:01.507Z,23.00
2022-08-08T19:13:03.552Z,23.17
2022-08-08T19:15:06.008Z,23.14
2022-08-08T19:17:07.322Z,23.18
2022-08-08T19:19:14.024Z,23.02
2022-08-08T19:21:27.977Z,23.04
2022-08-08T19:23:35.387Z,23.21
2022-08-08T19:26:26.975Z,21.94
2022-08-08T19:28:00.076Z,22.82
2022-08-08T19:30:01.582Z,22.79
2022-08-08T19:32:03.279Z,22.70
2022-08-08T19:34:29.947Z,22.78
2022-08-08T19:36:35.243Z,22.66
2022-08-08T19:38:36.604Z,22.56
2022-08-08T19:40:37.951Z,22.59
2022-08-08T19:42:42.636Z,21.64
2022-08-08T19:44:46.137Z,21.14
2022-08-08T19:46:52.083Z,22.11
2022-08-08T19:48:53.393Z,23.31
2022-08-08T19:50:54.765Z,23.87
2022-08-08T19:52:59.684Z,24.11
2022-08-08T19:55:04.769Z,24.16
2022-08-08T19:57:07.734Z,24.27
2022-08-08T19:59:09.632Z,23.85
2022-08-08T20:01:18.298Z,23.55
2022-08-08T20:04:00.987Z,23.41
2022-08-08T20:06:14.228Z,23.54
2022-08-08T20:08:37.479Z,23.53
2022-08-08T20:10:25.955Z,23.47
2022-08-08T20:12:32.053Z,23.45
2022-08-08T20:14:41.869Z,23.43
2022-08-08T20:16:43.789Z,23.40
2022-08-08T20:18:52.540Z,23.42
2022-08-08T20:20:54.916Z,23.43
2022-08-08T20:22:57.582Z,23.41
2022-08-08T20:25:00.389Z,23.40
2022-08-08T20:27:01.915Z,23.38
2022-08-08T20:29:03.294Z,23.37
2022-08-08T20:31:05.291Z,23.36
2022-08-08T20:33:19.878Z,23.34
2022-08-08T20:35:15.407Z,23.34
2022-08-08T20:37:24.415Z,23.40
2022-08-08T20:39:51.136Z,23.41
2022-08-08T20:41:53.509Z,23.41
2022-08-08T20:43:56.735Z,23.42
2022-08-08T20:46:03.507Z,23.41
2022-08-08T20:48:05.882Z,23.40
2022-08-08T20:50:10.070Z,23.39
2022-08-08T20:52:12.173Z,23.38
2022-08-08T20:54:15.769Z,23.39
2022-08-08T20:56:35.379Z,23.38
2022-08-08T20:58:37.754Z,23.37
2022-08-08T21:00:42.437Z,23.37
2022-08-08T21:02:48.489Z,23.36
2022-08-08T21:04:53.897Z,23.35
2022-08-08T21:06:58.560Z,23.34
2022-08-08T21:08:59.875Z,23.34
2022-08-08T21:11:02.373Z,23.34
2022-08-08T21:13:05.502Z,23.37
2022-08-08T21:15:10.173Z,23.36
2022-08-08T21:17:12.713Z,23.37
2022-08-08T21:19:16.450Z,23.35
2022-08-08T21:21:20.525Z,23.38
2022-08-08T21:24:02.434Z,23.39
2022-08-08T21:26:00.439Z,23.38
2022-08-08T21:28:13.308Z,23.38
2022-08-08T21:30:21.922Z,23.38
2022-08-08T21:32:25.175Z,23.36
2022-08-08T21:34:30.011Z,23.36
2022-08-08T21:36:31.553Z,23.36
2022-08-08T21:38:33.994Z,23.34
2022-08-08T21:40:35.470Z,23.34
2022-08-08T21:42:36.975Z,23.33
2022-08-08T21:44:39.142Z,23.32
2022-08-08T21:48:07.862Z,23.33
2022-08-08T21:49:23.167Z,23.32
2022-08-08T21:54:18.265Z,23.32
2022-08-08T21:54:27.268Z,23.33
2022-08-08T21:56:26.510Z,23.33
2022-08-08T21:58:37.701Z,23.33
2022-08-08T22:00:40.927Z,23.33
2022-08-08T22:02:42.524Z,23.32
2022-08-08T22:04:45.582Z,23.34
2022-08-08T22:06:46.919Z,23.37
2022-08-08T22:08:48.651Z,23.37
2022-08-08T22:10:51.935Z,23.45
2022-08-08T22:12:59.891Z,23.47
2022-08-08T22:15:16.746Z,23.48
2022-08-08T22:17:18.437Z,23.47
2022-08-08T22:19:24.005Z,23.48
2022-08-08T22:21:25.608Z,23.47
2022-08-08T22:23:35.975Z,23.47
2022-08-08T22:25:41.574Z,23.51
2022-08-08T22:28:04.054Z,23.51
2022-08-08T22:30:29.781Z,23.51
2022-08-08T22:32:31.755Z,23.51
2022-08-08T22:34:33.133Z,23.48
2022-08-08T22:36:41.019Z,23.47
2022-08-08T22:38:48.915Z,23.44
2022-08-08T22:40:50.454Z,23.47
2022-08-08T22:42:51.754Z,23.49
2022-08-08T22:44:53.053Z,23.47
2022-08-08T22:46:54.355Z,23.46
2022-08-08T22:48:56.526Z,23.44
2022-08-08T22:50:57.843Z,23.43
2022-08-08T22:54:30.809Z,23.42
2022-08-08T22:55:21.767Z,23.41
2022-08-08T22:57:24.567Z,23.40
2022-08-08T22:59:26.330Z,23.39
2022-08-08T23:02:03.658Z,23.42
2022-08-08T23:03:58.535Z,23.45
2022-08-08T23:06:00.125Z,23.44
2022-08-08T23:08:01.552Z,23.43
2022-08-08T23:10:02.943Z,23.41
2022-08-08T23:12:27.610Z,23.40
2022-08-08T23:14:25.739Z,23.39
2022-08-08T23:16:39.901Z,23.38
2022-08-08T23:18:43.751Z,23.44
2022-08-08T23:20:45.232Z,23.42
2022-08-08T23:22:56.740Z,23.40
2022-08-08T23:24:58.159Z,23.38
2022-08-08T23:27:00.141Z,23.35
2022-08-08T23:29:01.669Z,23.37
2022-08-08T23:31:02.976Z,23.38
2022-08-08T23:33:04.293Z,23.37
2022-08-08T23:35:08.258Z,23.35
2022-08-08T23:37:13.848Z,23.34
2022-08-08T23:39:15.624Z,23.34
2022-08-08T23:41:22.986Z,23.36
2022-08-08T23:43:31.642Z,23.34
2022-08-08T23:49:03.469Z,23.31
2022-08-08T23:49:06.943Z,23.33
2022-08-08T23:50:30.864Z,23.37
2022-08-08T23:52:32.831Z,23.34
2022-08-08T23:54:42.873Z,23.32
2022-08-08T23:56:54.382Z,23.34
2022-08-08T23:58:56.463Z,23.35
